Time;durP1;ratioP1;P1;durP2;ratioP2;P2;SDS_P1;SDS_P2;PMS_P1;PMS_P2;Temp;Humidity;BMP_temperature;BMP_pressure;BME280_temperature;BME280_humidity;BME280_pressure;Samples;Min_cycle;Max_cycle;Signal;HPM_P1;HPM_P2
2021/03/28 00:00:18;;;;;;;26.90;13.75;;;;;;;5.45;95.71;101866.30;1831929;78;21253;-56
2021/03/28 00:02:57;;;;;;;29.18;14.70;;;;;;;5.45;95.71;101882.26;1831445;77;21147;-57
2021/03/28 00:05:31;;;;;;;32.30;15.18;;;;;;;5.44;95.67;101879.15;1831971;77;21040;-57
2021/03/28 00:08:05;;;;;;;31.97;15.05;;;;;;;5.44;95.65;101873.83;1831919;77;21480;-57
2021/03/28 00:10:38;;;;;;;29.70;14.57;;;;;;;5.39;95.72;101863.59;1831309;77;21055;-56
2021/03/28 00:13:26;;;;;;;28.20;15.10;;;;;;;5.39;95.56;101868.91;1831818;78;21541;-57
2021/03/28 00:16:01;;;;;;;31.30;14.53;;;;;;;5.39;95.58;101860.93;1831965;78;21040;-58
2021/03/28 00:19:07;;;;;;;29.95;14.78;;;;;;;5.40;95.59;101864.03;1829978;77;21012;-57
2021/03/28 00:21:48;;;;;;;34.90;14.55;;;;;;;5.38;95.62;101857.82;1831927;77;21151;-56
2021/03/28 00:24:31;;;;;;;29.18;14.18;;;;;;;5.36;95.67;101854.27;1832065;78;21559;-56
2021/03/28 00:27:16;;;;;;;28.45;14.55;;;;;;;5.37;95.49;101847.19;1816177;78;20945;-57
2021/03/28 00:30:01;;;;;;;28.90;14.68;;;;;;;5.34;95.71;101846.73;1816051;78;21143;-56
2021/03/28 00:32:54;;;;;;;25.70;14.10;;;;;;;5.34;95.71;101846.73;1816402;78;21167;-56
2021/03/28 00:35:48;;;;;;;26.35;13.30;;;;;;;5.33;95.92;101849.40;1831982;78;21138;-57
2021/03/28 00:38:31;;;;;;;29.57;13.73;;;;;;;5.33;95.92;101849.40;1832185;78;21083;-57
2021/03/28 00:41:21;;;;;;;29.20;14.00;;;;;;;5.29;96.04;101853.80;1831916;78;21462;-56
2021/03/28 00:43:59;;;;;;;28.92;14.13;;;;;;;5.28;96.03;101852.90;1831800;77;21473;-56
2021/03/28 00:46:40;;;;;;;31.25;15.08;;;;;;;5.27;96.66;101855.11;1830232;77;20976;-57
2021/03/28 00:49:21;;;;;;;28.73;14.15;;;;;;;5.27;96.66;101855.11;1826305;78;21043;-57
2021/03/28 00:51:58;;;;;;;27.25;12.65;;;;;;;5.25;96.84;101854.22;1816318;78;21546;-56
2021/03/28 00:54:57;;;;;;;25.82;12.82;;;;;;;5.21;96.92;101848.44;1824070;78;21245;-56
2021/03/28 00:57:31;;;;;;;26.87;14.10;;;;;;;5.21;96.92;101848.44;1835777;78;21132;-56
2021/03/28 01:00:20;;;;;;;29.75;14.45;;;;;;;5.23;97.08;101845.80;1840147;78;20926;-56
2021/03/28 01:03:06;;;;;;;26.95;13.80;;;;;;;5.22;97.46;101849.34;1839509;78;20879;-57
2021/03/28 01:05:51;;;;;;;29.65;13.15;;;;;;;5.18;97.63;101844.87;1832090;78;21039;-57
2021/03/28 01:08:36;;;;;;;28.57;13.38;;;;;;;5.15;98.08;101856.40;1827177;78;21477;-56
2021/03/28 01:11:29;;;;;;;24.80;13.05;;;;;;;5.15;98.08;101856.40;1827148;77;21007;-56
2021/03/28 01:14:22;;;;;;;27.82;13.28;;;;;;;5.13;98.02;101852.39;1827174;78;21030;-57
2021/03/28 01:17:22;;;;;;;29.42;13.58;;;;;;;5.15;97.94;101858.59;1827312;78;20928;-57
2021/03/28 01:20:28;;;;;;;27.13;12.85;;;;;;;5.11;98.21;101850.63;1827290;78;21098;-56
2021/03/28 01:23:13;;;;;;;36.53;13.75;;;;;;;5.10;98.59;101857.69;1827402;78;21370;-56
2021/03/28 01:26:19;;;;;;;27.93;12.50;;;;;;;5.07;98.61;101852.36;1827368;78;21042;-56
2021/03/28 01:29:02;;;;;;;28.20;13.38;;;;;;;5.05;98.86;101856.78;1827244;78;21007;-57
2021/03/28 01:31:49;;;;;;;28.80;13.55;;;;;;;5.01;98.83;101851.88;1827256;78;20953;-57
2021/03/28 01:34:24;;;;;;;26.07;13.18;;;;;;;5.01;98.95;101858.52;1826927;78;21142;-56
2021/03/28 01:37:04;;;;;;;;;;;;;;;4.98;98.71;101852.32;1829988;78;21180;-56
2021/03/28 01:40:08;;;;;;;34.20;14.03;;;;;;;4.95;98.48;101857.59;1827210;78;20234;-56
2021/03/28 01:42:49;;;;;;;30.82;14.07;;;;;;;4.95;98.48;101857.59;1827266;78;21130;-57
2021/03/28 01:45:43;;;;;;;27.52;13.08;;;;;;;4.95;98.68;101858.92;1825292;78;21087;-57
2021/03/28 01:48:39;;;;;;;26.48;13.98;;;;;;;4.93;98.55;101852.70;1824330;77;21117;-56
2021/03/28 01:51:41;;;;;;;26.05;13.43;;;;;;;4.92;98.40;101854.92;1830141;78;21648;-56
2021/03/28 01:54:14;;;;;;;25.90;12.98;;;;;;;4.88;98.32;101849.59;1824544;77;21066;-56
2021/03/28 01:56:55;;;;;;;25.27;13.00;;;;;;;4.87;98.42;101850.47;1794812;80;20911;-57
2021/03/28 02:00:02;;;;;;;27.02;13.90;;;;;;;4.87;98.37;101853.13;1778286;80;21019;-56
2021/03/28 02:02:54;;;;;;;26.77;13.18;;;;;;;4.85;98.27;101852.23;1749623;80;21110;-57
2021/03/28 02:05:43;;;;;;;26.97;13.62;;;;;;;4.80;98.21;101854.41;1795553;79;21340;-57
2021/03/28 02:08:37;;;;;;;31.00;13.32;;;;;;;4.74;98.19;101867.20;1795449;80;21089;-57
2021/03/28 02:11:30;;;;;;;28.52;13.10;;;;;;;4.70;98.12;101860.09;1795505;79;21153;-57
2021/03/28 02:14:37;;;;;;;28.57;13.43;;;;;;;4.66;98.12;101855.64;1795570;79;21041;-57
2021/03/28 02:17:58;;;;;;;26.02;13.70;;;;;;;4.58;98.36;101853.82;1795568;79;20985;-56
2021/03/28 02:20:52;;;;;;;28.95;14.50;;;;;;;4.58;98.36;101853.82;1795540;79;21258;-56
2021/03/28 02:23:48;;;;;;;27.20;14.53;;;;;;;4.53;98.67;101846.27;1795264;79;21101;-56
2021/03/28 02:26:34;;;;;;;;;;;;;;;4.51;98.84;101856.41;1798278;80;21021;-57
2021/03/28 02:29:20;;;;;;;25.85;12.58;;;;;;;4.48;98.96;101851.08;1778446;80;20223;-57
2021/03/28 02:32:27;;;;;;;21.82;12.58;;;;;;;4.44;99.16;101850.16;1744892;80;21117;-57
2021/03/28 02:35:04;;;;;;;30.52;13.38;;;;;;;4.44;99.47;101844.84;1795609;79;21249;-57
2021/03/28 02:38:07;;;;;;;25.77;13.15;;;;;;;4.43;99.60;101848.38;1767580;79;21112;-57
2021/03/28 02:41:08;;;;;;;30.23;14.35;;;;;;;4.40;99.75;101848.36;1795667;79;21141;-57
2021/03/28 02:43:53;;;;;;;32.80;13.90;;;;;;;4.32;100.00;101842.11;1795648;79;21088;-57
2021/03/28 02:46:44;;;;;;;27.15;13.03;;;;;;;4.32;100.00;101842.11;1744893;82;21073;-57
2021/03/28 02:49:46;;;;;;;32.65;13.75;;;;;;;4.30;100.00;101846.93;1765112;80;22253;-57
2021/03/28 02:52:50;;;;;;;29.48;14.45;;;;;;;4.29;100.00;101845.61;1766940;81;21542;-59
2021/03/28 02:55:44;;;;;;;34.48;15.45;;;;;;;4.26;100.00;101842.48;1766872;80;21269;-57
2021/03/28 02:58:43;;;;;;;32.70;15.10;;;;;;;4.22;100.00;101842.46;1767023;81;21487;-57
2021/03/28 03:01:51;;;;;;;30.25;14.73;;;;;;;4.21;100.00;101850.84;1766779;80;21061;-57
2021/03/28 03:04:54;;;;;;;37.50;15.50;;;;;;;4.19;100.00;101851.70;1766933;81;21298;-57
2021/03/28 03:07:46;;;;;;;37.20;18.75;;;;;;;4.17;100.00;101854.35;1766936;80;21156;-57
2021/03/28 03:10:38;;;;;;;41.83;18.23;;;;;;;4.12;100.00;101837.50;1766977;81;21049;-57
2021/03/28 03:13:31;;;;;;;35.50;18.37;;;;;;;4.06;100.00;101846.71;1766428;80;21569;-57
2021/03/28 03:16:08;;;;;;;36.90;17.35;;;;;;;4.01;100.00;101845.36;1766941;81;21173;-57
2021/03/28 03:19:15;;;;;;;38.90;17.85;;;;;;;3.99;100.00;101842.68;1751840;81;22060;-58
2021/03/28 03:22:31;;;;;;;37.65;17.85;;;;;;;3.97;100.00;101843.10;1766874;81;21079;-57
2021/03/28 03:25:49;;;;;;;48.60;19.87;;;;;;;3.95;100.00;101846.18;1767053;81;20947;-58
2021/03/28 03:29:10;;;;;;;40.55;18.75;;;;;;;3.94;100.00;101841.75;1766815;81;21132;-58
2021/03/28 03:32:12;;;;;;;53.10;18.15;;;;;;;3.93;100.00;101843.95;1766615;80;21125;-57
2021/03/28 03:34:54;;;;;;;37.78;17.57;;;;;;;3.92;100.00;101852.79;1766714;80;21733;-56
2021/03/28 03:37:44;;;;;;;38.17;17.57;;;;;;;3.90;100.00;101849.23;1766900;80;21137;-57
2021/03/28 03:40:54;;;;;;;40.28;17.48;;;;;;;3.88;100.00;101852.31;1766902;80;21066;-57
2021/03/28 03:43:53;;;;;;;36.13;17.32;;;;;;;3.85;100.00;101850.92;1766828;81;21050;-57
2021/03/28 03:46:38;;;;;;;40.95;17.10;;;;;;;3.84;100.00;101858.43;1766985;80;21085;-57
2021/03/28 03:49:28;;;;;;;37.13;18.37;;;;;;;3.81;100.00;101863.71;1764394;80;22846;-57
2021/03/28 03:52:30;;;;;;;48.15;19.98;;;;;;;3.79;100.00;101850.87;1749761;82;21163;-58
2021/03/28 03:55:09;;;;;;;38.73;19.30;;;;;;;3.79;100.00;101857.50;1749976;82;21116;-58
2021/03/28 03:57:50;;;;;;;45.05;20.35;;;;;;;3.78;100.00;101853.06;1749654;82;22325;-58
2021/03/28 04:00:29;;;;;;;41.75;19.27;;;;;;;3.79;100.00;101866.36;1749927;82;21097;-58
2021/03/28 04:03:22;;;;;;;49.65;21.15;;;;;;;3.81;100.00;101870.34;1749990;82;21548;-57
2021/03/28 04:06:14;;;;;;;46.63;20.97;;;;;;;3.83;100.00;101873.90;1749911;82;21077;-57
2021/03/28 04:09:02;;;;;;;49.65;22.85;;;;;;;3.82;100.00;101877.42;1749924;82;21094;-57
2021/03/28 04:12:11;;;;;;;60.50;23.73;;;;;;;3.81;100.00;101879.62;1749994;82;21057;-57
2021/03/28 04:15:02;;;;;;;61.10;24.67;;;;;;;3.83;100.00;101877.87;1749924;82;21167;-57
2021/03/28 04:18:04;;;;;;;57.78;25.30;;;;;;;3.91;100.00;101877.55;1749952;82;21366;-58
2021/03/28 04:20:54;;;;;;;54.88;24.32;;;;;;;3.99;100.00;101875.85;1749810;81;21089;-57
2021/03/28 04:24:02;;;;;;;59.48;23.60;;;;;;;4.12;100.00;101878.19;1749842;82;20903;-56
2021/03/28 04:27:07;;;;;;;45.83;21.77;;;;;;;4.24;100.00;101879.20;1749905;82;21065;-58
2021/03/28 04:29:36;;;;;;;43.45;20.05;;;;;;;4.36;100.00;101883.28;1750103;81;21152;-57
2021/03/28 04:32:33;;;;;;;41.65;20.62;;;;;;;4.52;100.00;101892.27;1749885;82;21196;-57
2021/03/28 04:35:38;;;;;;;47.83;20.82;;;;;;;4.63;100.00;101890.16;1746412;82;21167;-57
2021/03/28 04:38:31;;;;;;;49.10;21.00;;;;;;;4.75;100.00;101888.91;1750170;82;21125;-58
2021/03/28 04:41:08;;;;;;;40.38;19.35;;;;;;;4.90;100.00;101891.23;1749916;82;21192;-58
2021/03/28 04:44:03;;;;;;;45.52;20.48;;;;;;;5.04;100.00;101886.91;1749921;82;21172;-57
2021/03/28 04:46:56;;;;;;;41.53;20.53;;;;;;;5.23;100.00;101891.88;1696794;82;21680;-58
2021/03/28 04:50:01;;;;;;;36.90;18.55;;;;;;;5.40;100.00;101895.95;1751599;81;22463;-57
2021/03/28 04:53:03;;;;;;;37.78;18.40;;;;;;;5.56;100.00;101888.05;1766983;81;21070;-57
2021/03/28 04:55:55;;;;;;;43.20;18.75;;;;;;;5.66;100.00;101894.30;1767466;79;21244;-57
2021/03/28 04:58:54;;;;;;;42.75;17.45;;;;;;;5.72;100.00;101896.55;1798410;79;21054;-57
2021/03/28 05:01:56;;;;;;;63.87;22.17;;;;;;;5.77;99.79;101902.33;1798427;79;21189;-57
2021/03/28 05:05:19;;;;;;;61.75;23.75;;;;;;;5.66;97.93;101916.49;1798338;79;21055;-57
2021/03/28 05:08:18;;;;;;;67.22;22.37;;;;;;;5.53;96.75;101914.64;1797997;79;21042;-58
2021/03/28 05:11:06;;;;;;;57.27;19.85;;;;;;;5.45;96.64;101918.17;1780709;79;21010;-57
2021/03/28 05:14:22;;;;;;;62.50;23.00;;;;;;;5.48;96.66;101919.06;1798270;79;21153;-57
2021/03/28 05:17:24;;;;;;;54.73;22.60;;;;;;;5.51;96.69;101921.27;1798503;79;21723;-57
2021/03/28 05:20:34;;;;;;;49.98;21.40;;;;;;;5.78;96.18;101913.42;1798327;79;20983;-57
2021/03/28 05:23:33;;;;;;;56.73;21.25;;;;;;;6.10;94.82;101923.33;1798409;79;21114;-57
2021/03/28 05:26:19;;;;;;;67.82;23.62;;;;;;;6.38;93.13;101919.38;1798309;79;21082;-59
2021/03/28 05:29:25;;;;;;;53.20;21.57;;;;;;;6.55;91.91;101922.95;1798264;79;21122;-57
2021/03/28 05:32:22;;;;;;;66.95;23.73;;;;;;;6.61;91.08;101930.50;1798349;79;21341;-57
2021/03/28 05:35:08;;;;;;;73.17;25.75;;;;;;;6.69;90.63;101922.95;1791493;79;21066;-57
2021/03/28 05:37:54;;;;;;;;;;;;;;;6.74;90.00;101926.50;1801061;79;21050;-57
2021/03/28 05:41:01;;;;;;;61.02;25.77;;;;;;;6.83;88.69;101928.28;1798474;79;20220;-58
2021/03/28 05:44:14;;;;;;;74.82;29.55;;;;;;;6.89;87.77;101931.39;1798392;79;21129;-58
2021/03/28 05:47:21;;;;;;;72.25;27.75;;;;;;;6.87;86.80;101930.50;1766559;81;21629;-57
2021/03/28 05:50:32;;;;;;;79.65;28.23;;;;;;;6.86;86.48;101938.93;1765504;80;21133;-57
2021/03/28 05:53:43;;;;;;;55.95;27.48;;;;;;;6.92;86.24;101933.14;1758141;81;21066;-57
2021/03/28 05:57:07;;;;;;;70.28;32.95;;;;;;;6.99;85.90;101941.61;1767513;80;21043;-57
2021/03/28 06:00:01;;;;;;;63.78;32.83;;;;;;;7.04;85.19;101946.48;1789390;79;21141;-57
2021/03/28 06:03:01;;;;;;;72.25;32.88;;;;;;;7.10;84.71;101942.47;1788908;79;21190;-57
2021/03/28 06:06:05;;;;;;;76.02;34.08;;;;;;;7.14;83.79;101938.89;1789398;80;21055;-58
2021/03/28 06:09:12;;;;;;;76.12;31.87;;;;;;;7.23;82.91;101941.13;1788608;80;21197;-58
2021/03/28 06:12:17;;;;;;;75.17;31.57;;;;;;;7.28;82.40;101944.66;1789102;79;21154;-58
2021/03/28 06:14:53;;;;;;;84.80;33.85;;;;;;;7.34;82.24;101941.98;1789228;80;21138;-58
2021/03/28 06:18:10;;;;;;;67.03;32.10;;;;;;;7.47;82.09;101951.30;1753573;79;21395;-57
2021/03/28 06:21:10;;;;;;;81.82;33.35;;;;;;;7.55;81.30;101950.81;1789532;79;21121;-57
2021/03/28 06:23:49;;;;;;;78.00;30.52;;;;;;;7.62;81.02;101955.70;1761411;79;21217;-58
2021/03/28 06:26:56;;;;;;;68.67;31.45;;;;;;;7.77;80.72;101949.41;1789195;79;21126;-58
2021/03/28 06:30:20;;;;;;;72.25;31.65;;;;;;;7.86;80.22;101968.08;1789570;80;21058;-58
2021/03/28 06:33:25;;;;;;;73.75;34.03;;;;;;;8.06;80.01;101959.05;1789495;80;21739;-58
2021/03/28 06:36:38;;;;;;;65.50;33.00;;;;;;;8.36;79.11;101963.81;1789492;79;21531;-58
2021/03/28 06:39:34;;;;;;;64.95;33.65;;;;;;;8.82;78.20;101956.83;1789559;80;21134;-58
2021/03/28 06:42:36;;;;;;;77.35;33.90;;;;;;;9.51;76.13;101962.85;1789558;80;21090;-57
2021/03/28 06:45:43;;;;;;;61.37;32.28;;;;;;;9.91;73.58;101957.02;1787521;80;21085;-58
2021/03/28 06:48:38;;;;;;;;;;;;;;;10.25;71.02;101956.55;1773931;81;21372;-57
2021/03/28 06:51:46;;;;;;;66.77;33.10;;;;;;;10.68;69.91;101958.18;1785561;80;20291;-57
2021/03/28 06:54:41;;;;;;;83.15;34.83;;;;;;;10.99;67.86;101959.03;1771311;80;21079;-57
2021/03/28 06:57:16;;;;;;;65.78;34.90;;;;;;;10.93;67.63;101968.50;1757229;81;21577;-57
2021/03/28 07:00:32;;;;;;;64.75;32.75;;;;;;;10.79;68.39;101964.27;1778433;80;21141;-58
2021/03/28 07:03:55;;;;;;;70.10;36.25;;;;;;;10.75;68.91;101962.09;1772533;81;21187;-58
2021/03/28 07:06:46;;;;;;;72.67;34.20;;;;;;;10.74;68.88;101963.47;1734831;81;21108;-57
2021/03/28 07:09:47;;;;;;;65.13;39.30;;;;;;;10.59;69.35;101954.75;1873160;76;27828;-57
2021/03/28 07:12:43;;;;;;;;;;;;;;;10.46;69.54;101959.86;1863070;77;21036;-57
2021/03/28 07:16:07;;;;;;;64.17;35.83;;;;;;;10.20;69.59;101958.89;1860302;77;21798;-57
2021/03/28 07:19:01;;;;;;;74.30;36.60;;;;;;;9.92;70.46;101959.23;1860292;77;20981;-58
2021/03/28 07:21:51;;;;;;;55.23;30.02;;;;;;;9.83;70.61;101968.27;1840944;77;20940;-58
2021/03/28 07:25:17;;;;;;;58.13;29.82;;;;;;;9.74;71.15;101959.45;1860260;77;20929;-58
2021/03/28 07:28:08;;;;;;;53.65;28.30;;;;;;;9.70;71.66;101965.76;1860501;77;21131;-58
2021/03/28 07:30:59;;;;;;;57.43;28.75;;;;;;;9.64;72.13;101964.94;1860316;77;21186;-58
2021/03/28 07:33:47;;;;;;;51.92;27.58;;;;;;;9.55;72.75;101963.25;1860242;77;20979;-58
2021/03/28 07:36:41;;;;;;;50.92;26.52;;;;;;;9.52;73.18;101966.86;1860253;77;21008;-58
2021/03/28 07:39:36;;;;;;;47.60;26.05;;;;;;;9.50;73.48;101967.78;1860245;77;21662;-58
2021/03/28 07:42:29;;;;;;;48.70;26.20;;;;;;;9.48;73.80;101974.47;1860274;77;21151;-58
2021/03/28 07:45:11;;;;;;;51.48;26.55;;;;;;;9.44;73.86;101976.31;1860172;77;21689;-57
2021/03/28 07:47:50;;;;;;;50.92;25.52;;;;;;;9.43;74.31;101969.19;1788257;77;21100;-57
2021/03/28 07:50:46;;;;;;;42.93;23.65;;;;;;;9.44;74.31;101975.41;1859642;77;21079;-58
2021/03/28 07:53:31;;;;;;;40.03;21.35;;;;;;;9.42;74.43;101976.78;1860250;77;21099;-59
2021/03/28 07:56:48;;;;;;;44.10;22.32;;;;;;;9.39;74.55;101976.79;1850023;77;21097;-58
2021/03/28 07:59:53;;;;;;;40.63;20.30;;;;;;;9.29;75.17;101985.83;1812480;79;21094;-58
2021/03/28 08:02:59;;;;;;;41.00;19.30;;;;;;;9.19;75.07;101977.00;1814555;79;21122;-57
2021/03/28 08:06:21;;;;;;;36.75;17.50;;;;;;;9.19;75.28;101980.14;1814633;79;20999;-58
2021/03/28 08:09:37;;;;;;;33.13;17.52;;;;;;;9.20;75.11;101976.56;1778848;80;21047;-59
2021/03/28 08:12:23;;;;;;;35.38;17.87;;;;;;;9.28;74.97;101977.37;1778989;80;21134;-58
2021/03/28 08:15:33;;;;;;;35.73;17.10;;;;;;;9.37;74.82;101977.73;1779237;80;21532;-58
2021/03/28 08:18:15;;;;;;;30.55;15.85;;;;;;;9.42;74.49;101984.81;1757914;81;21252;-59
2021/03/28 08:21:11;;;;;;;31.73;15.28;;;;;;;9.37;74.36;101982.61;1811865;79;21042;-57
2021/03/28 08:24:16;;;;;;;25.02;13.62;;;;;;;9.31;74.59;101980.91;1781165;79;21110;-58
2021/03/28 08:27:01;;;;;;;32.60;14.53;;;;;;;9.29;74.42;101980.05;1814023;79;21154;-58
2021/03/28 08:30:00;;;;;;;30.35;15.05;;;;;;;9.29;74.58;101977.80;1778712;80;21694;-57
2021/03/28 08:33:11;;;;;;;27.13;14.73;;;;;;;9.23;74.44;101976.06;1778354;79;21055;-58
2021/03/28 08:36:23;;;;;;;31.57;16.23;;;;;;;9.20;74.51;101976.09;1778104;80;20937;-58
2021/03/28 08:39:26;;;;;;;28.27;15.63;;;;;;;9.17;74.77;101977.03;1778358;80;21055;-57
2021/03/28 08:42:11;;;;;;;32.30;14.40;;;;;;;9.21;74.93;101971.19;1778448;80;20999;-59
2021/03/28 08:45:30;;;;;;;36.17;15.18;;;;;;;9.27;74.65;101971.11;1773137;77;21374;-58
2021/03/28 08:48:38;;;;;;;29.80;14.03;;;;;;;9.24;74.66;101972.95;1844894;77;21051;-58
2021/03/28 08:52:04;;;;;;;27.85;14.87;;;;;;;9.27;74.46;101966.23;1757462;81;21087;-57
2021/03/28 08:55:01;;;;;;;25.05;13.05;;;;;;;9.31;74.58;101969.30;1717747;83;21230;-57
2021/03/28 08:57:51;;;;;;;32.00;13.80;;;;;;;9.34;74.26;101965.72;1714175;83;21125;-57
2021/03/28 09:00:35;;;;;;;27.25;14.40;;;;;;;9.41;74.25;101962.97;1805836;79;21547;-57
2021/03/28 09:03:25;;;;;;;24.30;12.82;;;;;;;9.53;74.06;101963.72;1816466;78;21011;-58
2021/03/28 09:06:03;;;;;;;21.80;12.73;;;;;;;9.64;73.57;101963.16;1813525;79;21475;-58
2021/03/28 09:08:41;;;;;;;22.25;12.95;;;;;;;9.70;72.57;101960.41;1787346;79;21491;-57
2021/03/28 09:11:54;;;;;;;31.60;14.35;;;;;;;9.77;72.38;101961.66;1816596;79;21078;-58
2021/03/28 09:14:51;;;;;;;22.45;13.05;;;;;;;9.84;72.13;101949.98;1816709;79;21341;-57
2021/03/28 09:17:25;;;;;;;21.77;13.15;;;;;;;9.90;71.71;101952.58;1816486;79;20920;-58
2021/03/28 09:20:16;;;;;;;27.30;13.53;;;;;;;9.87;71.58;101940.09;1816839;78;25852;-58
2021/03/28 09:23:08;;;;;;;25.60;12.95;;;;;;;9.88;71.85;101945.02;1816631;79;21023;-58
2021/03/28 09:25:40;;;;;;;21.95;12.70;;;;;;;9.89;71.40;101946.78;1816625;78;21122;-57
2021/03/28 09:28:51;;;;;;;28.15;13.38;;;;;;;9.84;71.33;101937.92;1816667;78;21192;-58
2021/03/28 09:31:42;;;;;;;29.30;13.90;;;;;;;9.84;71.10;101945.97;1816551;79;21043;-58
2021/03/28 09:34:40;;;;;;;23.50;12.82;;;;;;;9.84;71.26;101946.83;1816657;79;21070;-58
2021/03/28 09:37:37;;;;;;;23.98;12.70;;;;;;;9.91;71.48;101938.27;1816584;78;21126;-57
2021/03/28 09:40:28;;;;;;;16.30;10.30;;;;;;;9.97;71.22;101939.52;1816627;79;21109;-58
2021/03/28 09:43:07;;;;;;;26.07;12.37;;;;;;;9.99;69.92;101937.70;1816662;79;21147;-57
2021/03/28 09:46:09;;;;;;;23.98;12.75;;;;;;;9.98;70.41;101931.91;1771455;79;21549;-59
2021/03/28 09:49:05;;;;;;;19.70;11.88;;;;;;;9.94;70.40;101930.19;1788251;80;20992;-57
2021/03/28 09:52:15;;;;;;;21.15;11.57;;;;;;;9.93;70.31;101921.72;1757425;81;21035;-57
2021/03/28 09:55:23;;;;;;;21.77;12.50;;;;;;;9.89;70.34;101925.35;1690709;83;21224;-57
2021/03/28 09:58:14;;;;;;;22.60;13.22;;;;;;;9.81;70.55;101926.79;1667440;86;21211;-57
2021/03/28 10:00:59;;;;;;;25.17;12.73;;;;;;;9.75;70.79;101926.41;1749075;81;21086;-57
2021/03/28 10:03:31;;;;;;;25.72;13.28;;;;;;;9.71;71.13;101932.72;1764947;81;21069;-58
2021/03/28 10:06:05;;;;;;;25.80;13.83;;;;;;;9.69;71.17;101926.49;1764888;81;21498;-58
2021/03/28 10:08:36;;;;;;;25.23;13.18;;;;;;;9.70;71.56;101925.59;1765299;81;21624;-58
2021/03/28 10:11:14;;;;;;;28.15;13.53;;;;;;;9.73;71.50;101929.56;1766006;81;21145;-58
2021/03/28 10:14:12;;;;;;;21.62;11.78;;;;;;;9.73;71.54;101916.17;1765931;81;21085;-58
2021/03/28 10:17:37;;;;;;;25.12;14.35;;;;;;;9.71;71.72;101922.00;1766105;81;21176;-57
2021/03/28 10:20:39;;;;;;;26.90;14.15;;;;;;;9.65;71.91;101920.75;1765644;81;21094;-58
2021/03/28 10:23:45;;;;;;;31.00;14.93;;;;;;;9.60;72.42;101925.25;1766184;81;21128;-58
2021/03/28 10:27:00;;;;;;;31.15;16.35;;;;;;;9.59;72.84;101916.78;1765802;81;21362;-58
2021/03/28 10:30:06;;;;;;;25.05;12.93;;;;;;;9.63;73.29;101916.30;1766002;81;20959;-58
2021/03/28 10:32:51;;;;;;;27.40;14.18;;;;;;;9.62;72.77;101910.52;1766026;81;21097;-59
2021/03/28 10:35:53;;;;;;;29.20;14.28;;;;;;;9.58;72.66;101909.66;1766189;81;20935;-58
2021/03/28 10:38:41;;;;;;;23.42;13.03;;;;;;;9.52;72.70;101911.08;1766127;81;21232;-58
2021/03/28 10:41:34;;;;;;;26.25;14.40;;;;;;;9.48;72.37;101913.36;1766093;81;21708;-58
2021/03/28 10:44:24;;;;;;;32.67;15.88;;;;;;;9.39;72.77;101910.34;1769963;79;21415;-58
2021/03/28 10:47:24;;;;;;;29.87;15.95;;;;;;;9.37;73.41;101910.81;1797497;79;21067;-58
2021/03/28 10:50:38;;;;;;;29.85;15.58;;;;;;;9.36;73.63;101906.36;1797539;79;21085;-59
2021/03/28 10:53:47;;;;;;;32.88;16.12;;;;;;;9.37;73.88;101909.00;1796880;79;21129;-58
2021/03/28 10:56:44;;;;;;;32.03;17.45;;;;;;;9.38;73.73;101906.76;1786951;79;21427;-59
2021/03/28 11:00:02;;;;;;;29.20;16.27;;;;;;;9.39;74.04;101896.48;1765996;81;21090;-59
2021/03/28 11:02:48;;;;;;;31.70;15.48;;;;;;;9.36;74.29;101901.88;1765419;81;22330;-57
2021/03/28 11:05:52;;;;;;;28.87;15.40;;;;;;;9.36;73.75;101897.86;1765364;81;21157;-58
2021/03/28 11:08:41;;;;;;;30.55;17.05;;;;;;;9.39;73.88;101900.50;1765488;81;21078;-57
2021/03/28 11:11:41;;;;;;;37.80;19.15;;;;;;;9.40;74.37;101898.28;1764682;81;21760;-58
2021/03/28 11:14:47;;;;;;;40.65;21.17;;;;;;;9.35;74.63;101891.20;1764643;81;21018;-58
2021/03/28 11:17:35;;;;;;;36.58;20.88;;;;;;;9.32;75.32;101889.44;1764754;81;21144;-57
2021/03/28 11:20:11;;;;;;;38.90;21.52;;;;;;;9.32;75.79;101892.12;1764635;81;21142;-57
2021/03/28 11:23:26;;;;;;;45.43;22.85;;;;;;;9.27;76.33;101893.97;1764716;81;21058;-58
2021/03/28 11:26:18;;;;;;;40.58;22.35;;;;;;;9.17;76.47;101890.50;1764620;81;21062;-57
2021/03/28 11:29:42;;;;;;;43.52;22.77;;;;;;;9.02;76.87;101878.19;1810979;79;21157;-57
2021/03/28 11:32:18;;;;;;;42.35;22.00;;;;;;;8.94;77.09;101886.71;1811099;79;20936;-58
2021/03/28 11:35:13;;;;;;;49.48;23.80;;;;;;;8.84;77.82;101883.24;1811020;79;21110;-58
2021/03/28 11:38:19;;;;;;;44.00;22.20;;;;;;;8.87;78.10;101870.73;1778586;80;21043;-58
2021/03/28 11:40:53;;;;;;;42.83;22.60;;;;;;;8.87;78.10;101870.73;1778479;80;21731;-58
2021/03/28 11:43:38;;;;;;;43.08;22.58;;;;;;;8.92;77.13;101861.34;1774023;80;21131;-58
2021/03/28 11:46:10;;;;;;;40.45;21.10;;;;;;;8.97;77.24;101866.18;1842964;77;21015;-59
2021/03/28 11:48:47;;;;;;;39.33;21.42;;;;;;;9.01;76.32;101863.03;1770665;81;21114;-58
2021/03/28 11:51:38;;;;;;;43.60;22.48;;;;;;;9.00;75.17;101862.13;1798538;79;21189;-59
2021/03/28 11:54:15;;;;;;;42.20;22.48;;;;;;;8.96;74.61;101864.41;1801989;79;21368;-59
2021/03/28 11:56:59;;;;;;;45.45;21.95;;;;;;;8.95;74.64;101857.72;1799121;79;21149;-58
2021/03/28 11:59:52;;;;;;;46.80;20.92;;;;;;;9.02;74.77;101851.43;1793282;79;21554;-57
2021/03/28 12:02:28;;;;;;;46.77;22.77;;;;;;;9.07;74.76;101849.58;1763886;79;21062;-58
2021/03/28 12:05:10;;;;;;;38.05;21.12;;;;;;;9.10;74.72;101852.22;1796508;79;21570;-57
2021/03/28 12:07:44;;;;;;;40.00;20.62;;;;;;;9.16;74.07;101845.45;1796539;79;21525;-58
2021/03/28 12:10:33;;;;;;;34.75;19.55;;;;;;;9.23;73.27;101836.04;1796423;79;21081;-58
2021/03/28 12:13:34;;;;;;;35.33;19.23;;;;;;;9.29;72.99;101841.31;1796471;79;21058;-59
2021/03/28 12:16:05;;;;;;;36.38;18.50;;;;;;;9.37;71.89;101830.52;1796461;79;21105;-58
2021/03/28 12:18:42;;;;;;;30.97;18.07;;;;;;;9.38;70.13;101825.59;1796591;79;21126;-57
2021/03/28 12:21:18;;;;;;;34.73;18.23;;;;;;;9.30;69.28;101827.02;1796494;79;21440;-58
2021/03/28 12:23:58;;;;;;;33.50;18.07;;;;;;;9.21;69.30;101824.47;1795995;79;21073;-58
2021/03/28 12:26:40;;;;;;;40.85;19.77;;;;;;;9.15;69.72;101820.06;1796448;79;21109;-58
2021/03/28 12:29:31;;;;;;;31.82;18.15;;;;;;;9.14;70.19;101812.48;1796395;79;21074;-59
2021/03/28 12:31:59;;;;;;;34.18;18.02;;;;;;;9.21;70.27;101823.13;1796538;79;21058;-57
2021/03/28 12:34:37;;;;;;;35.80;17.90;;;;;;;9.28;69.40;101816.79;1796508;79;22266;-59
2021/03/28 12:37:15;;;;;;;34.20;17.55;;;;;;;9.35;68.64;101814.45;1796457;79;21138;-57
2021/03/28 12:39:48;;;;;;;29.07;15.28;;;;;;;9.42;67.60;101812.59;1796434;79;20939;-59
2021/03/28 12:42:37;;;;;;;24.40;14.80;;;;;;;9.52;66.42;101808.91;1796544;79;21162;-57
2021/03/28 12:45:13;;;;;;;23.15;12.50;;;;;;;9.60;65.50;101810.11;1796383;79;21158;-58
2021/03/28 12:47:52;;;;;;;21.40;12.33;;;;;;;9.63;65.10;101810.09;1796120;79;21209;-57
2021/03/28 12:50:33;;;;;;;20.27;12.25;;;;;;;9.66;65.17;101802.02;1796104;79;21141;-57
2021/03/28 12:53:12;;;;;;;25.27;12.28;;;;;;;9.70;64.31;101802.83;1789460;80;21063;-58
2021/03/28 12:55:52;;;;;;;25.82;12.30;;;;;;;9.71;63.63;101802.83;1807646;78;20917;-58
2021/03/28 12:58:42;;;;;;;24.15;13.08;;;;;;;9.73;63.11;101792.97;1770813;80;21196;-58
2021/03/28 13:01:33;;;;;;;24.98;13.65;;;;;;;9.79;63.30;101790.66;1802406;79;21539;-58
2021/03/28 13:04:17;;;;;;;24.45;13.53;;;;;;;9.89;62.87;101794.09;1802362;79;21554;-57
2021/03/28 13:06:48;;;;;;;22.35;12.28;;;;;;;9.95;62.88;101791.30;1798445;79;21769;-57
2021/03/28 13:09:23;;;;;;;22.17;11.57;;;;;;;9.99;62.95;101780.96;1802158;79;21214;-57
2021/03/28 13:11:58;;;;;;;21.30;11.33;;;;;;;10.03;61.92;101780.00;1802458;79;21095;-58
2021/03/28 13:14:40;;;;;;;19.92;10.20;;;;;;;10.06;61.66;101780.41;1802386;79;21366;-58
2021/03/28 13:17:30;;;;;;;16.35;10.03;;;;;;;10.10;61.48;101778.58;1800279;79;21119;-58